Time;durP1;ratioP1;P1;durP2;ratioP2;P2;SDS_P1;SDS_P2;PMS_P1;PMS_P2;Temp;Humidity;BMP_temperature;BMP_pressure;BME280_temperature;BME280_humidity;BME280_pressure;Samples;Min_cycle;Max_cycle;Signal;HPM_P1;HPM_P2
2024/03/25 00:00:30;;;;;;;8.65;2.45;;;5.10;99.90;;;;;;5077714;28;20193;-63
2024/03/25 00:02:56;;;;;;;5.32;2.15;;;5.10;99.90;;;;;;5076974;28;20231;-63
2024/03/25 00:05:25;;;;;;;5.00;2.37;;;5.20;99.90;;;;;;5079807;28;20203;-63
2024/03/25 00:07:52;;;;;;;12.02;4.63;;;5.20;99.90;;;;;;5079362;28;20239;-63
2024/03/25 00:10:20;;;;;;;8.20;2.65;;;5.20;99.90;;;;;;5079523;28;20204;-62
2024/03/25 00:12:46;;;;;;;5.65;1.88;;;5.20;99.90;;;;;;5076927;28;20323;-63
2024/03/25 00:15:12;;;;;;;4.97;2.27;;;5.20;99.90;;;;;;5076494;28;20639;-63
2024/03/25 00:17:39;;;;;;;5.85;2.20;;;5.20;99.90;;;;;;5076651;28;20701;-63
2024/03/25 00:20:09;;;;;;;4.13;1.95;;;5.10;99.90;;;;;;5078092;28;20234;-62
2024/03/25 00:22:35;;;;;;;3.53;1.90;;;5.10;99.90;;;;;;5077524;28;20649;-63
2024/03/25 00:25:02;;;;;;;8.77;2.73;;;5.10;99.90;;;;;;5077986;28;20236;-63
2024/03/25 00:27:29;;;;;;;2.35;1.80;;;5.00;99.90;;;;;;5078726;28;20581;-63
2024/03/25 00:29:56;;;;;;;4.05;2.30;;;5.00;99.90;;;;;;5082417;28;20227;-63
2024/03/25 00:32:21;;;;;;;3.65;2.28;;;5.00;99.90;;;;;;5082236;28;20227;-63
2024/03/25 00:34:49;;;;;;;3.00;2.07;;;5.10;99.90;;;;;;5082234;28;20203;-63
2024/03/25 00:37:15;;;;;;;4.88;2.00;;;5.10;99.90;;;;;;5082304;28;20220;-63
2024/03/25 00:39:41;;;;;;;4.80;2.17;;;5.10;99.90;;;;;;5081875;28;20207;-63
2024/03/25 00:42:08;;;;;;;6.93;2.50;;;5.20;99.90;;;;;;5078751;28;20556;-63
2024/03/25 00:44:34;;;;;;;3.78;2.55;;;5.20;99.90;;;;;;5079241;28;20197;-63
2024/03/25 00:47:00;;;;;;;6.37;2.97;;;5.20;99.90;;;;;;5078379;28;20316;-64
2024/03/25 00:49:26;;;;;;;5.15;3.25;;;5.30;99.90;;;;;;5077981;28;20451;-63
2024/03/25 00:51:55;;;;;;;4.93;1.95;;;5.30;99.90;;;;;;5077031;28;20664;-63
2024/03/25 00:54:20;;;;;;;5.65;2.70;;;5.30;99.90;;;;;;5077887;28;20208;-64
2024/03/25 00:56:47;;;;;;;4.47;2.47;;;5.30;99.90;;;;;;5077716;28;20224;-63
2024/03/25 00:59:13;;;;;;;5.50;2.95;;;5.30;99.90;;;;;;5078351;28;20212;-64
2024/03/25 01:01:40;;;;;;;8.77;2.50;;;5.30;99.90;;;;;;5077357;28;20219;-63
2024/03/25 01:04:05;;;;;;;2.67;2.20;;;5.30;99.90;;;;;;5077554;28;20208;-63
2024/03/25 01:06:33;;;;;;;7.77;3.03;;;5.30;99.90;;;;;;5077238;28;20202;-62
2024/03/25 01:09:00;;;;;;;5.43;2.40;;;5.30;99.90;;;;;;5077072;28;20208;-62
2024/03/25 01:11:27;;;;;;;7.05;2.72;;;5.30;99.90;;;;;;5077306;28;20322;-63
2024/03/25 01:13:52;;;;;;;5.75;2.17;;;5.30;99.90;;;;;;5079640;28;20199;-63
2024/03/25 01:16:19;;;;;;;8.37;2.67;;;5.30;99.90;;;;;;5080864;28;20224;-64
2024/03/25 01:18:45;;;;;;;8.63;2.53;;;5.30;99.90;;;;;;5080050;28;20203;-63
2024/03/25 01:21:12;;;;;;;7.87;2.93;;;5.30;99.90;;;;;;5077942;28;20595;-64
2024/03/25 01:23:37;;;;;;;5.03;2.30;;;5.30;99.90;;;;;;5078205;28;20203;-63
2024/03/25 01:26:05;;;;;;;6.60;3.00;;;5.30;99.90;;;;;;5077601;28;20634;-62
2024/03/25 01:28:31;;;;;;;10.25;2.58;;;5.20;99.90;;;;;;5077168;28;20208;-64
2024/03/25 01:30:58;;;;;;;5.90;3.40;;;5.20;99.90;;;;;;5076648;28;20578;-63
2024/03/25 01:33:24;;;;;;;4.30;2.80;;;5.20;99.90;;;;;;5076228;28;20212;-63
2024/03/25 01:35:51;;;;;;;6.00;2.70;;;5.20;99.90;;;;;;5076792;28;20224;-64
2024/03/25 01:38:16;;;;;;;4.68;2.40;;;5.20;99.90;;;;;;5076718;28;20442;-63
2024/03/25 01:40:45;;;;;;;9.13;2.70;;;5.20;99.90;;;;;;5076106;28;20550;-63
2024/03/25 01:43:12;;;;;;;7.47;2.30;;;5.20;99.90;;;;;;5076912;28;20282;-63
2024/03/25 01:45:39;;;;;;;6.90;2.85;;;5.10;99.90;;;;;;5076794;28;20200;-63
2024/03/25 01:48:07;;;;;;;8.13;2.95;;;5.20;99.90;;;;;;5076972;28;20571;-63
2024/03/25 01:50:38;;;;;;;10.73;2.53;;;5.10;99.90;;;;;;5076667;28;20208;-62
2024/03/25 01:53:04;;;;;;;6.95;2.58;;;5.20;99.90;;;;;;5076905;28;20223;-64
2024/03/25 01:55:34;;;;;;;6.50;2.63;;;5.20;99.90;;;;;;5076296;28;20198;-62
2024/03/25 01:58:01;;;;;;;3.88;2.25;;;5.20;99.90;;;;;;5076077;28;20295;-63
2024/03/25 02:00:29;;;;;;;15.48;3.17;;;5.20;99.90;;;;;;5076282;28;20208;-64
2024/03/25 02:02:55;;;;;;;6.38;3.13;;;5.10;99.90;;;;;;5075907;28;20600;-62
2024/03/25 02:05:22;;;;;;;5.53;2.50;;;5.10;99.90;;;;;;5076599;28;20257;-63
2024/03/25 02:07:49;;;;;;;6.80;3.03;;;5.20;99.90;;;;;;5076305;28;20682;-63
2024/03/25 02:10:16;;;;;;;7.00;2.70;;;5.10;99.90;;;;;;5075963;28;20197;-63
2024/03/25 02:12:43;;;;;;;3.50;1.80;;;5.20;99.90;;;;;;5075472;28;20570;-63
2024/03/25 02:15:11;;;;;;;7.97;2.75;;;5.20;99.90;;;;;;5076821;28;20260;-63
2024/03/25 02:17:38;;;;;;;7.30;2.63;;;5.20;99.90;;;;;;5076021;28;20233;-63
2024/03/25 02:20:07;;;;;;;9.68;2.92;;;5.20;99.90;;;;;;5076461;28;20581;-64
2024/03/25 02:22:33;;;;;;;9.82;2.75;;;5.10;99.90;;;;;;5079843;28;20227;-63
2024/03/25 02:25:01;;;;;;;3.50;3.20;;;5.10;99.90;;;;;;5081121;28;20200;-64
2024/03/25 02:27:30;;;;;;;6.03;3.25;;;5.10;99.90;;;;;;5079226;28;20673;-64
2024/03/25 02:30:03;;;;;;;9.52;3.35;;;5.10;99.90;;;;;;5080837;28;20200;-63
2024/03/25 02:32:29;;;;;;;7.10;2.40;;;5.10;99.90;;;;;;5081545;28;20247;-62
2024/03/25 02:34:57;;;;;;;6.47;2.33;;;5.10;99.90;;;;;;5082990;28;20200;-62
2024/03/25 02:37:24;;;;;;;4.03;2.30;;;5.10;99.90;;;;;;5077828;28;20227;-62
2024/03/25 02:39:50;;;;;;;8.52;2.90;;;5.10;99.90;;;;;;5076165;28;20577;-63
2024/03/25 02:42:17;;;;;;;7.15;2.75;;;5.00;99.90;;;;;;5076546;28;20227;-62
2024/03/25 02:44:46;;;;;;;4.25;2.20;;;5.00;99.90;;;;;;5075522;28;20230;-63
2024/03/25 02:47:12;;;;;;;3.97;3.10;;;5.00;99.90;;;;;;5075937;28;20215;-63
2024/03/25 02:49:39;;;;;;;4.03;2.27;;;5.00;99.90;;;;;;5075406;28;20204;-63
2024/03/25 02:52:05;;;;;;;8.27;3.25;;;4.90;99.90;;;;;;5075216;28;20465;-62
2024/03/25 02:54:32;;;;;;;6.55;2.70;;;4.90;99.90;;;;;;5076562;28;20230;-62
2024/03/25 02:56:57;;;;;;;7.90;2.97;;;4.90;99.90;;;;;;5075258;28;20578;-63
2024/03/25 02:59:24;;;;;;;4.00;2.50;;;4.90;99.90;;;;;;5075785;28;20207;-62
2024/03/25 03:01:51;;;;;;;3.45;2.47;;;4.90;99.90;;;;;;5090283;22;20227;-61
2024/03/25 03:04:18;;;;;;;7.80;3.10;;;4.90;99.90;;;;;;5055025;28;20295;-62
2024/03/25 03:06:44;;;;;;;5.53;2.25;;;4.90;99.90;;;;;;5054867;28;20212;-61
2024/03/25 03:09:11;;;;;;;5.97;2.60;;;4.90;99.90;;;;;;5054100;28;20632;-62
2024/03/25 03:11:37;;;;;;;7.00;2.30;;;4.90;99.90;;;;;;5054110;28;20278;-61
2024/03/25 03:14:04;;;;;;;7.27;2.63;;;4.90;99.90;;;;;;5054562;28;20607;-61
2024/03/25 03:16:30;;;;;;;7.43;2.75;;;4.90;99.90;;;;;;5054161;28;20247;-62
2024/03/25 03:18:58;;;;;;;4.27;2.50;;;4.90;99.90;;;;;;5054589;28;20236;-62
2024/03/25 03:21:23;;;;;;;5.13;2.85;;;4.90;99.90;;;;;;5054068;28;20470;-62
2024/03/25 03:23:50;;;;;;;7.40;2.17;;;4.90;99.90;;;;;;5054283;28;20197;-61
2024/03/25 03:26:16;;;;;;;6.95;2.70;;;4.90;99.90;;;;;;5054226;28;20207;-62
2024/03/25 03:28:43;;;;;;;6.70;3.07;;;5.00;99.90;;;;;;5054563;28;20582;-62
2024/03/25 03:31:08;;;;;;;7.80;3.20;;;4.90;99.90;;;;;;5054452;28;20207;-63
2024/03/25 03:33:35;;;;;;;4.77;2.10;;;5.00;99.90;;;;;;5053945;28;20293;-62
2024/03/25 03:36:03;;;;;;;4.85;2.70;;;5.00;99.90;;;;;;5054217;28;20227;-62
2024/03/25 03:38:29;;;;;;;10.95;3.30;;;5.00;99.90;;;;;;5053620;28;20206;-62
2024/03/25 03:40:59;;;;;;;4.63;2.05;;;5.00;99.90;;;;;;5053165;28;20220;-64
2024/03/25 03:43:26;;;;;;;4.50;2.83;;;5.00;99.90;;;;;;5053071;28;20208;-63
2024/03/25 03:45:51;;;;;;;5.05;2.60;;;5.00;99.90;;;;;;5053432;28;20203;-63
2024/03/25 03:48:18;;;;;;;4.17;2.00;;;5.00;99.90;;;;;;5052977;28;20207;-62
2024/03/25 03:50:44;;;;;;;5.03;2.05;;;5.10;99.90;;;;;;5053357;28;20442;-63
2024/03/25 03:53:13;;;;;;;4.97;2.30;;;5.00;99.90;;;;;;5053346;28;20220;-62
2024/03/25 03:55:39;;;;;;;5.63;2.40;;;5.00;99.90;;;;;;5053265;28;20471;-62
2024/03/25 03:58:06;;;;;;;6.80;2.30;;;5.00;99.90;;;;;;5053122;28;20646;-62
2024/03/25 04:00:34;;;;;;;4.00;2.35;;;5.10;99.90;;;;;;5053072;28;20208;-62
2024/03/25 04:03:01;;;;;;;6.05;2.42;;;5.00;99.90;;;;;;5052465;28;20228;-60
2024/03/25 04:05:29;;;;;;;4.75;2.22;;;5.00;99.90;;;;;;5053465;28;20291;-62
2024/03/25 04:07:56;;;;;;;5.63;2.60;;;5.00;99.90;;;;;;5053306;28;20193;-60
2024/03/25 04:13:27;;;;;;;4.40;2.70;;;4.90;99.90;;;;;;5090821;28;20962;-61
2024/03/25 04:15:54;;;;;;;5.03;2.70;;;4.90;99.90;;;;;;5090429;28;20295;-61
2024/03/25 04:18:19;;;;;;;3.72;2.20;;;4.80;99.90;;;;;;5090711;28;20204;-62
2024/03/25 04:20:46;;;;;;;6.43;3.20;;;4.80;99.90;;;;;;5090420;28;20201;-62
2024/03/25 04:23:12;;;;;;;2.47;2.25;;;4.70;99.90;;;;;;5090493;28;20232;-61
2024/03/25 04:25:39;;;;;;;6.28;2.42;;;4.70;99.90;;;;;;5100900;22;20687;-61
2024/03/25 04:28:06;;;;;;;5.10;2.17;;;4.60;99.90;;;;;;5084713;28;20629;-61
2024/03/25 04:30:34;;;;;;;6.22;2.17;;;4.60;99.90;;;;;;5072759;28;20200;-62
2024/03/25 04:33:00;;;;;;;12.20;2.80;;;4.60;99.90;;;;;;5070692;28;20223;-62
2024/03/25 04:35:27;;;;;;;4.90;2.55;;;4.60;99.90;;;;;;5070867;28;20259;-62
